Time;durP1;ratioP1;P1;durP2;ratioP2;P2;SDS_P1;SDS_P2;PMS_P1;PMS_P2;Temp;Humidity;BMP_temperature;BMP_pressure;BME280_temperature;BME280_humidity;BME280_pressure;Samples;Min_cycle;Max_cycle;Signal;HPM_P1;HPM_P2
2021/04/12 00:00:09;;;;;;;;;;;22.60;38.70;;;;;;5048483;28;20019;-76
2021/04/12 00:02:38;;;;;;;;;;;22.40;39.20;;;;;;5056559;28;19908;-76
2021/04/12 00:05:18;;;;;;;;;;;22.20;39.40;;;;;;5038979;28;19909;-76
2021/04/12 00:07:50;;;;;;;;;;;22.10;39.40;;;;;;5056497;28;20377;-76
2021/04/12 00:10:25;;;;;;;;;;;22.10;39.40;;;;;;5056361;28;19912;-75
2021/04/12 00:12:55;;;;;;;;;;;22.00;39.40;;;;;;5047175;28;19912;-75
2021/04/12 00:15:26;;;;;;;;;;;21.80;39.20;;;;;;5047183;28;20303;-76
2021/04/12 00:17:53;;;;;;;;;;;21.70;39.30;;;;;;5036200;28;19905;-75
2021/04/12 00:20:22;;;;;;;;;;;21.60;39.00;;;;;;5038018;28;19915;-76
2021/04/12 00:22:51;;;;;;;;;;;21.30;39.80;;;;;;5056041;28;19905;-77
2021/04/12 00:25:20;;;;;;;;;;;21.40;39.30;;;;;;5055915;28;19912;-76
2021/04/12 00:27:52;;;;;;;;;;;21.30;39.10;;;;;;5038187;28;20231;-74
2021/04/12 00:30:32;;;;;;;;;;;21.10;39.20;;;;;;5038044;28;19905;-76
2021/04/12 00:32:58;;;;;;;;;;;20.90;39.60;;;;;;5055791;28;19956;-76
2021/04/12 00:35:37;;;;;;;;;;;20.60;39.70;;;;;;5054962;28;19992;-76
2021/04/12 00:38:21;;;;;;;;;;;20.40;40.00;;;;;;5055754;28;19905;-76
2021/04/12 00:40:53;;;;;;;;;;;20.10;40.50;;;;;;5049050;28;19935;-77
2021/04/12 00:43:19;;;;;;;;;;;19.90;40.80;;;;;;5049613;28;19963;-77
2021/04/12 00:46:00;;;;;;;;;;;19.80;40.80;;;;;;5036085;28;20407;-75
2021/04/12 00:48:38;;;;;;;;;;;19.70;41.30;;;;;;5050281;28;19916;-76
2021/04/12 00:51:15;;;;;;;;;;;19.40;40.90;;;;;;5049405;28;19908;-76
2021/04/12 00:53:47;;;;;;;;;;;19.40;41.00;;;;;;5042559;28;19913;-76
2021/04/12 00:56:16;;;;;;;;;;;19.20;41.00;;;;;;5050847;28;19921;-76
2021/04/12 00:58:51;;;;;;;;;;;19.30;40.90;;;;;;5043301;28;19916;-76
2021/04/12 01:01:32;;;;;;;;;;;19.20;41.00;;;;;;5048404;28;19962;-76
2021/04/12 01:04:01;;;;;;;;;;;19.30;40.70;;;;;;5043020;28;19928;-76
2021/04/12 01:06:30;;;;;;;;;;;19.20;40.80;;;;;;5021317;28;19916;-76
2021/04/12 01:09:22;;;;;;;;;;;19.30;40.70;;;;;;5038830;28;20339;-76
2021/04/12 01:12:18;;;;;;;;;;;19.30;40.60;;;;;;5046717;28;19913;-77
2021/04/12 01:15:02;;;;;;;;;;;19.30;40.80;;;;;;4989047;28;19917;-77
2021/04/12 01:17:28;;;;;;;;;;;19.10;41.30;;;;;;5046105;28;19951;-77
2021/04/12 01:20:00;;;;;;;;;;;19.10;41.40;;;;;;5053180;28;20377;-77
2021/04/12 01:22:38;;;;;;;;;;;18.90;41.80;;;;;;5055237;28;19905;-77
2021/04/12 01:25:22;;;;;;;;;;;18.70;41.70;;;;;;5054094;28;19908;-77
2021/04/12 01:28:06;;;;;;;;;;;18.50;42.40;;;;;;5037694;28;20334;-76
2021/04/12 01:30:51;;;;;;;;;;;18.60;42.20;;;;;;5049886;28;20238;-77
2021/04/12 01:33:35;;;;;;;;;;;18.40;42.20;;;;;;5034989;28;19940;-77
2021/04/12 01:36:14;;;;;;;;;;;18.20;42.60;;;;;;5034758;28;19917;-77
2021/04/12 01:38:52;;;;;;;;;;;18.20;42.60;;;;;;5050708;28;20011;-78
2021/04/12 01:41:38;;;;;;;;;;;18.00;43.20;;;;;;5054328;28;20334;-76
2021/04/12 01:44:07;;;;;;;;;;;17.90;44.10;;;;;;5053642;28;19916;-76
2021/04/12 01:46:33;;;;;;;;;;;17.60;44.90;;;;;;5043319;28;19920;-77
2021/04/12 01:49:17;;;;;;;;;;;17.40;45.60;;;;;;5058080;28;19913;-77
2021/04/12 01:52:00;;;;;;;;;;;17.10;45.90;;;;;;5038549;28;19928;-77
2021/04/12 01:54:37;;;;;;;;;;;17.00;46.30;;;;;;5057761;28;19909;-77
2021/04/12 01:57:22;;;;;;;;;;;16.80;46.20;;;;;;5056546;28;19912;-77
2021/04/12 02:00:06;;;;;;;;;;;16.60;46.70;;;;;;5038338;28;19923;-77
2021/04/12 02:02:51;;;;;;;;;;;16.50;46.70;;;;;;5057587;28;19915;-77
2021/04/12 02:05:25;;;;;;;;;;;16.50;46.80;;;;;;5058433;28;19966;-76
2021/04/12 02:08:23;;;;;;;;;;;16.40;48.20;;;;;;5054299;28;19908;-77
2021/04/12 02:11:01;;;;;;;;;;;16.10;48.60;;;;;;5012579;28;19918;-77
2021/04/12 02:13:45;;;;;;;;;;;16.00;49.40;;;;;;5048823;28;19915;-77
2021/04/12 02:16:11;;;;;;;;;;;15.90;49.00;;;;;;5057664;28;20338;-78
2021/04/12 02:18:49;;;;;;;;;;;15.70;49.20;;;;;;5057285;28;19912;-77
2021/04/12 02:21:34;;;;;;;;;;;15.70;49.60;;;;;;5057363;28;19957;-78
2021/04/12 02:24:15;;;;;;;;;;;15.60;49.50;;;;;;5056822;28;19954;-78
2021/04/12 02:27:14;;;;;;;;;;;15.50;50.10;;;;;;5056323;28;19916;-78
2021/04/12 02:29:40;;;;;;;;;;;15.50;49.70;;;;;;5008971;28;19916;-77
2021/04/12 02:32:15;;;;;;;;;;;15.50;49.60;;;;;;5038028;28;19905;-77
2021/04/12 02:34:41;;;;;;;;;;;15.30;49.30;;;;;;5036073;28;19909;-77
2021/04/12 02:37:26;;;;;;;;;;;15.30;49.60;;;;;;5031415;28;19919;-76
2021/04/12 02:40:05;;;;;;;;;;;15.20;49.00;;;;;;5045765;28;19913;-77
2021/04/12 02:42:50;;;;;;;;;;;15.20;49.40;;;;;;5053611;28;20334;-76
2021/04/12 02:45:22;;;;;;;;;;;15.20;49.60;;;;;;5057169;28;19908;-77
2021/04/12 02:48:02;;;;;;;;;;;15.10;50.20;;;;;;5039276;28;19915;-76
2021/04/12 02:50:47;;;;;;;;;;;15.10;49.20;;;;;;5056318;28;19947;-77
2021/04/12 02:53:16;;;;;;;;;;;15.10;49.30;;;;;;5051934;28;20038;-76
2021/04/12 02:56:00;;;;;;;;;;;15.10;49.40;;;;;;5047825;28;19916;-77
2021/04/12 02:58:36;;;;;;;;;;;15.00;49.50;;;;;;5056992;28;20349;-76
2021/04/12 03:01:10;;;;;;;;;;;15.10;49.40;;;;;;5055268;28;19916;-76
2021/04/12 03:03:54;;;;;;;;;;;15.10;49.30;;;;;;5056375;28;19917;-76
2021/04/12 03:06:41;;;;;;;;;;;15.20;50.00;;;;;;5043244;28;19909;-76
2021/04/12 03:09:22;;;;;;;;;;;15.10;50.50;;;;;;5053402;28;19944;-77
2021/04/12 03:12:06;;;;;;;;;;;14.80;49.90;;;;;;5055170;28;19921;-76
2021/04/12 03:14:42;;;;;;;;;;;14.80;49.90;;;;;;5055467;28;19967;-76
2021/04/12 03:17:14;;;;;;;;;;;14.80;50.00;;;;;;5034635;28;20282;-76
2021/04/12 03:19:50;;;;;;;;;;;14.60;51.00;;;;;;5049319;28;20270;-78
2021/04/12 03:22:34;;;;;;;;;;;14.60;50.80;;;;;;5043963;28;19908;-77
2021/04/12 03:25:19;;;;;;;;;;;14.50;51.00;;;;;;5052299;28;19912;-76
2021/04/12 03:27:51;;;;;;;;;;;14.50;51.50;;;;;;5034896;28;19924;-77
2021/04/12 03:30:23;;;;;;;;;;;14.50;52.90;;;;;;5045593;28;20046;-77
2021/04/12 03:33:01;;;;;;;;;;;14.40;53.30;;;;;;5045121;28;19912;-77
2021/04/12 03:35:50;;;;;;;;;;;14.30;53.90;;;;;;5050010;28;19923;-76
2021/04/12 03:38:23;;;;;;;;;;;14.20;54.20;;;;;;5016851;28;20017;-76
2021/04/12 03:41:01;;;;;;;;;;;14.00;54.60;;;;;;5053173;28;20308;-76
2021/04/12 03:43:39;;;;;;;;;;;14.00;53.80;;;;;;5039429;28;19920;-77
2021/04/12 03:46:23;;;;;;;;;;;13.90;55.30;;;;;;5054921;28;20353;-76
2021/04/12 03:48:55;;;;;;;;;;;13.80;55.90;;;;;;5052082;28;19999;-75
2021/04/12 03:51:27;;;;;;;;;;;13.70;56.80;;;;;;5056042;28;19904;-76
2021/04/12 03:54:14;;;;;;;;;;;13.60;56.20;;;;;;5045788;28;19963;-76
2021/04/12 03:56:46;;;;;;;;;;;13.50;56.00;;;;;;5043468;28;19936;-76
2021/04/12 03:59:15;;;;;;;;;;;13.50;56.20;;;;;;5036632;28;20008;-76
2021/04/12 04:02:00;;;;;;;;;;;13.50;57.20;;;;;;5055976;28;19931;-76
2021/04/12 04:04:38;;;;;;;;;;;13.40;56.90;;;;;;5055307;28;19955;-77
2021/04/12 04:07:23;;;;;;;;;;;13.30;56.60;;;;;;5037570;28;19920;-76
2021/04/12 04:09:55;;;;;;;;;;;13.40;56.20;;;;;;5028120;28;19909;-76
2021/04/12 04:12:39;;;;;;;;;;;13.30;57.00;;;;;;5054108;28;19970;-76
2021/04/12 04:15:23;;;;;;;;;;;13.40;57.60;;;;;;5051968;28;19917;-76
2021/04/12 04:18:08;;;;;;;;;;;13.30;56.60;;;;;;5053186;28;19904;-77
2021/04/12 04:20:37;;;;;;;;;;;13.30;56.50;;;;;;5052302;28;19920;-76
2021/04/12 04:23:21;;;;;;;;;;;13.30;57.30;;;;;;5043441;28;19904;-76
2021/04/12 04:26:06;;;;;;;;;;;13.20;56.80;;;;;;5055950;28;20349;-76
2021/04/12 04:28:32;;;;;;;;;;;13.20;58.10;;;;;;5055960;28;19912;-76
2021/04/12 04:31:09;;;;;;;;;;;13.20;57.00;;;;;;5055746;28;20239;-76
2021/04/12 04:33:54;;;;;;;;;;;13.20;57.30;;;;;;5049713;28;19905;-75
2021/04/12 04:36:24;;;;;;;;;;;13.10;58.40;;;;;;5055592;28;19913;-76
2021/04/12 04:38:55;;;;;;;;;;;13.10;56.90;;;;;;5036260;28;19927;-75
2021/04/12 04:41:39;;;;;;;;;;;13.10;57.60;;;;;;5035657;28;20011;-78
2021/04/12 04:44:17;;;;;;;;;;;13.10;57.50;;;;;;5047705;28;19909;-77
2021/04/12 04:46:56;;;;;;;;;;;13.10;57.30;;;;;;5043735;28;19916;-77
2021/04/12 04:49:34;;;;;;;;;;;13.10;57.50;;;;;;5055603;28;19904;-77
2021/04/12 04:52:00;;;;;;;;;;;13.00;56.80;;;;;;5055604;28;19904;-78
2021/04/12 04:54:26;;;;;;;;;;;13.10;58.10;;;;;;5037399;28;19909;-77
2021/04/12 04:56:52;;;;;;;;;;;13.10;56.50;;;;;;5055330;28;19982;-78
2021/04/12 04:59:24;;;;;;;;;;;13.00;56.80;;;;;;5051441;28;19908;-78
2021/04/12 05:02:01;;;;;;;;;;;13.00;56.40;;;;;;5035347;28;19915;-76
2021/04/12 05:04:45;;;;;;;;;;;12.90;56.60;;;;;;5035330;28;19905;-77
2021/04/12 05:07:30;;;;;;;;;;;12.90;57.40;;;;;;5046614;28;20337;-78
2021/04/12 05:09:57;;;;;;;;;;;13.00;57.10;;;;;;5042074;28;20327;-77
2021/04/12 05:12:49;;;;;;;;;;;13.00;57.50;;;;;;5036211;28;20019;-77
2021/04/12 05:15:25;;;;;;;;;;;13.00;57.10;;;;;;5025961;28;19970;-78
2021/04/12 05:17:57;;;;;;;;;;;13.10;58.20;;;;;;5036591;28;19998;-78
2021/04/12 05:20:27;;;;;;;;;;;13.00;57.40;;;;;;5064560;28;20235;-78
2021/04/12 05:23:00;;;;;;;;;;;13.00;56.80;;;;;;5017647;28;19905;-79
2021/04/12 05:25:44;;;;;;;;;;;12.90;56.70;;;;;;5040649;28;19908;-78
2021/04/12 05:28:39;;;;;;;;;;;12.90;58.00;;;;;;5032243;28;20227;-77
2021/04/12 05:31:05;;;;;;;;;;;13.00;57.80;;;;;;5030685;28;19913;-77
2021/04/12 05:33:38;;;;;;;;;;;13.00;58.50;;;;;;5030357;28;19971;-77
2021/04/12 05:36:22;;;;;;;;;;;13.00;58.90;;;;;;5050521;28;19918;-77
2021/04/12 05:39:03;;;;;;;;;;;13.10;59.30;;;;;;5054719;28;20007;-76
2021/04/12 05:41:33;;;;;;;;;;;13.00;59.00;;;;;;5023961;28;19912;-77
2021/04/12 05:44:02;;;;;;;;;;;12.90;58.20;;;;;;5043127;28;19963;-76
2021/04/12 05:46:37;;;;;;;;;;;12.90;59.10;;;;;;5034819;28;19909;-77
2021/04/12 05:49:06;;;;;;;;;;;12.80;58.60;;;;;;5044986;28;19909;-76
2021/04/12 05:51:47;;;;;;;;;;;12.90;59.70;;;;;;5054531;28;19904;-77
2021/04/12 05:54:19;;;;;;;;;;;12.90;59.50;;;;;;5054402;28;19980;-77
2021/04/12 05:57:03;;;;;;;;;;;12.80;58.90;;;;;;5036138;28;19996;-77
2021/04/12 05:59:48;;;;;;;;;;;12.60;58.80;;;;;;5054347;28;19959;-77
2021/04/12 06:02:32;;;;;;;;;;;12.60;59.30;;;;;;5054597;28;19912;-77
2021/04/12 06:05:05;;;;;;;;;;;12.60;58.60;;;;;;5038328;28;19917;-77
2021/04/12 06:07:31;;;;;;;;;;;12.70;59.50;;;;;;5048484;28;19904;-76
2021/04/12 06:10:16;;;;;;;;;;;12.70;59.00;;;;;;5024485;28;19909;-76
2021/04/12 06:12:42;;;;;;;;;;;12.60;59.40;;;;;;5050593;28;19909;-77
2021/04/12 06:15:20;;;;;;;;;;;12.50;59.50;;;;;;5036135;28;19905;-76
2021/04/12 06:18:14;;;;;;;;;;;12.40;58.40;;;;;;5052470;28;19905;-77
2021/04/12 06:20:59;;;;;;;;;;;12.20;60.30;;;;;;5034582;28;19909;-77
2021/04/12 06:23:43;;;;;;;;;;;12.20;59.10;;;;;;5034451;28;19909;-77
2021/04/12 06:26:21;;;;;;;;;;;12.30;58.30;;;;;;5034642;28;19968;-77
2021/04/12 06:28:47;;;;;;;;;;;12.30;59.00;;;;;;5034418;28;20000;-77
2021/04/12 06:31:32;;;;;;;;;;;12.30;57.90;;;;;;5016988;28;20385;-76
2021/04/12 06:34:23;;;;;;;;;;;12.20;58.20;;;;;;5046116;28;19967;-76
2021/04/12 06:37:09;;;;;;;;;;;12.20;58.00;;;;;;5057762;28;19936;-77
2021/04/12 06:39:43;;;;;;;;;;;12.20;58.30;;;;;;5013448;28;20338;-76
2021/04/12 06:42:28;;;;;;;;;;;12.20;58.00;;;;;;5038179;28;19909;-76
2021/04/12 06:45:04;;;;;;;;;;;12.20;58.20;;;;;;5037957;28;19913;-76
2021/04/12 06:47:36;;;;;;;;;;;12.10;58.40;;;;;;5037993;28;19916;-76
2021/04/12 06:50:21;;;;;;;;;;;12.10;58.40;;;;;;5020359;28;19916;-76
2021/04/12 06:53:06;;;;;;;;;;;12.10;57.70;;;;;;5057351;28;19908;-76
2021/04/12 06:56:02;;;;;;;;;;;12.10;58.40;;;;;;5050328;28;19980;-76
2021/04/12 06:58:45;;;;;;;;;;;12.10;58.00;;;;;;5057260;28;19905;-76
2021/04/12 07:01:18;;;;;;;;;;;12.00;58.70;;;;;;5050477;28;19920;-76
2021/04/12 07:04:02;;;;;;;;;;;12.00;58.80;;;;;;5055554;28;19916;-76
2021/04/12 07:06:47;;;;;;;;;;;12.00;58.00;;;;;;5039587;28;19916;-76
2021/04/12 07:09:19;;;;;;;;;;;12.00;59.10;;;;;;5056706;28;19915;-76
2021/04/12 07:12:09;;;;;;;;;;;12.00;59.50;;;;;;5057352;28;19963;-76
2021/04/12 07:14:53;;;;;;;;;;;12.10;59.00;;;;;;5053592;28;19909;-76
2021/04/12 07:17:32;;;;;;;;;;;12.10;58.60;;;;;;5019205;28;19905;-76
2021/04/12 07:20:06;;;;;;;;;;;12.10;58.40;;;;;;5055614;28;19962;-76
2021/04/12 07:22:58;;;;;;;;;;;12.10;58.40;;;;;;5040424;28;19975;-77
2021/04/12 07:25:30;;;;;;;;;;;12.00;58.30;;;;;;5048458;28;19920;-76
2021/04/12 07:28:19;;;;;;;;;;;12.10;59.70;;;;;;5057005;28;20365;-76
2021/04/12 07:31:04;;;;;;;;;;;12.10;58.60;;;;;;5056999;28;19966;-76
2021/04/12 07:33:49;;;;;;;;;;;12.10;58.60;;;;;;5056814;28;19912;-76
2021/04/12 07:36:16;;;;;;;;;;;12.10;58.90;;;;;;5037176;28;19913;-76
2021/04/12 07:39:00;;;;;;;;;;;12.00;58.50;;;;;;5019566;28;19992;-76
2021/04/12 07:41:35;;;;;;;;;;;12.00;59.80;;;;;;5056322;28;19915;-76
2021/04/12 07:44:10;;;;;;;;;;;11.90;58.50;;;;;;5056632;28;19951;-76
2021/04/12 07:46:42;;;;;;;;;;;12.00;59.90;;;;;;5036597;28;19915;-76
2021/04/12 07:49:27;;;;;;;;;;;11.90;59.50;;;;;;5049426;28;20250;-77
2021/04/12 07:52:19;;;;;;;;;;;12.00;60.10;;;;;;5056747;28;20320;-76
2021/04/12 07:54:45;;;;;;;;;;;12.20;61.30;;;;;;5018247;28;19999;-76
2021/04/12 07:57:37;;;;;;;;;;;12.20;60.70;;;;;;5038780;28;19939;-76
2021/04/12 08:00:20;;;;;;;;;;;12.20;60.10;;;;;;5053161;28;19913;-76
2021/04/12 08:03:04;;;;;;;;;;;12.20;61.00;;;;;;5055872;28;19905;-76
2021/04/12 08:05:49;;;;;;;;;;;12.10;61.20;;;;;;5056521;28;19911;-76
2021/04/12 08:08:33;;;;;;;;;;;12.30;62.90;;;;;;5035368;28;19928;-76
2021/04/12 08:11:08;;;;;;;;;;;12.20;61.30;;;;;;5042004;28;19908;-76
2021/04/12 08:13:52;;;;;;;;;;;12.20;61.20;;;;;;5036351;28;19913;-77
2021/04/12 08:16:38;;;;;;;;;;;12.30;62.30;;;;;;5045135;28;20278;-76
2021/04/12 08:19:13;;;;;;;;;;;12.30;62.40;;;;;;5056034;28;19985;-76
2021/04/12 08:21:58;;;;;;;;;;;12.10;61.60;;;;;;5056145;28;19908;-76
2021/04/12 08:25:02;;;;;;;;;;;12.20;61.40;;;;;;5054724;28;20383;-76
2021/04/12 08:27:47;;;;;;;;;;;12.20;61.60;;;;;;4994706;28;19918;-76
2021/04/12 08:30:33;;;;;;;;;;;12.20;62.20;;;;;;5005424;28;19909;-76
2021/04/12 08:33:17;;;;;;;;;;;12.20;62.00;;;;;;5008279;28;19919;-76
2021/04/12 08:35:49;;;;;;;;;;;12.20;61.80;;;;;;5055640;28;20372;-76
2021/04/12 08:38:34;;;;;;;;;;;12.20;61.80;;;;;;5049174;28;19909;-76
2021/04/12 08:41:18;;;;;;;;;;;12.20;62.30;;;;;;5038192;28;20335;-76
2021/04/12 08:44:03;;;;;;;;;;;12.20;62.80;;;;;;5044824;28;19935;-75
2021/04/12 08:46:45;;;;;;;;;;;12.30;61.80;;;;;;5035883;28;19912;-76
2021/04/12 08:49:14;;;;;;;;;;;12.20;61.80;;;;;;5049620;28;19912;-76
2021/04/12 08:51:43;;;;;;;;;;;12.10;62.70;;;;;;5037720;28;20342;-76
2021/04/12 08:54:12;;;;;;;;;;;12.20;61.80;;;;;;5055233;28;20046;-76
2021/04/12 08:56:56;;;;;;;;;;;12.30;62.40;;;;;;5054805;28;19909;-76
2021/04/12 08:59:35;;;;;;;;;;;12.30;62.90;;;;;;5055365;28;19905;-76
2021/04/12 09:02:21;;;;;;;;;;;12.20;63.40;;;;;;5055433;28;19935;-76
2021/04/12 09:05:02;;;;;;;;;;;12.40;63.90;;;;;;5054446;28;19916;-76
2021/04/12 09:07:35;;;;;;;;;;;12.30;62.60;;;;;;5041664;28;19916;-76
2021/04/12 09:10:19;;;;;;;;;;;12.20;62.30;;;;;;5053257;28;20337;-76
2021/04/12 09:12:53;;;;;;;;;;;12.40;63.90;;;;;;5039396;28;19947;-76
2021/04/12 09:15:25;;;;;;;;;;;12.50;63.30;;;;;;5035412;28;20250;-76
2021/04/12 09:18:10;;;;;;;;;;;12.50;63.30;;;;;;5037153;28;20283;-76
2021/04/12 09:20:54;;;;;;;;;;;12.50;63.70;;;;;;5062730;28;20258;-76
2021/04/12 09:23:27;;;;;;;;;;;12.50;63.90;;;;;;5066598;28;20408;-76
2021/04/12 09:26:12;;;;;;;;;;;12.30;63.50;;;;;;5054981;28;19912;-76
2021/04/12 09:28:57;;;;;;;;;;;12.30;63.60;;;;;;5054855;28;19923;-76
2021/04/12 09:31:43;;;;;;;;;;;12.40;64.90;;;;;;5043300;28;19909;-76
2021/04/12 09:34:12;;;;;;;;;;;12.20;63.60;;;;;;5039775;28;19915;-76
2021/04/12 09:36:58;;;;;;;;;;;12.20;63.90;;;;;;5054744;28;19919;-76
2021/04/12 09:39:33;;;;;;;;;;;12.10;64.10;;;;;;5049320;28;19913;-76
2021/04/12 09:42:18;;;;;;;;;;;12.10;65.20;;;;;;5054787;28;20453;-77
2021/04/12 09:45:02;;;;;;;;;;;12.30;64.50;;;;;;5053816;28;19991;-76
2021/04/12 09:47:47;;;;;;;;;;;12.20;64.90;;;;;;5050599;28;19916;-77
2021/04/12 09:50:13;;;;;;;;;;;12.10;64.90;;;;;;5033282;28;19909;-76
2021/04/12 09:52:49;;;;;;;;;;;12.20;65.30;;;;;;5034919;28;19963;-76
2021/04/12 09:55:38;;;;;;;;;;;12.10;64.30;;;;;;5037647;28;20347;-77
2021/04/12 09:58:22;;;;;;;;;;;12.10;64.00;;;;;;5026621;28;19909;-77
2021/04/12 10:00:55;;;;;;;;;;;12.10;64.80;;;;;;5054611;28;19970;-76
2021/04/12 10:03:42;;;;;;;;;;;12.20;64.60;;;;;;5037165;28;19904;-77
2021/04/12 10:06:14;;;;;;;;;;;12.20;65.00;;;;;;5034269;28;19905;-76
2021/04/12 10:09:00;;;;;;;;;;;12.10;64.70;;;;;;5038025;28;19909;-77
2021/04/12 10:11:46;;;;;;;;;;;12.10;65.80;;;;;;4998768;28;19905;-76
2021/04/12 10:14:27;;;;;;;;;;;12.20;65.50;;;;;;5038288;28;19909;-76
2021/04/12 10:16:53;;;;;;;;;;;12.10;65.20;;;;;;5050768;28;19908;-76
2021/04/12 10:19:21;;;;;;;;;;;12.30;65.50;;;;;;5040791;28;19905;-76
2021/04/12 10:21:58;;;;;;;;;;;12.20;65.40;;;;;;5058225;28;19909;-76
2021/04/12 10:24:27;;;;;;;;;;;12.20;65.60;;;;;;5057774;28;19912;-76
2021/04/12 10:27:08;;;;;;;;;;;12.20;65.40;;;;;;5058260;28;19915;-77
2021/04/12 10:29:43;;;;;;;;;;;12.20;65.70;;;;;;5058225;28;19978;-76
2021/04/12 10:32:14;;;;;;;;;;;12.10;65.40;;;;;;5038832;28;20327;-76
2021/04/12 10:34:49;;;;;;;;;;;12.20;66.30;;;;;;5047167;28;20376;-76
2021/04/12 10:37:26;;;;;;;;;;;12.20;65.70;;;;;;5058075;28;19913;-76
2021/04/12 10:40:01;;;;;;;;;;;12.10;65.10;;;;;;5058093;28;19915;-76
2021/04/12 10:42:45;;;;;;;;;;;12.20;66.50;;;;;;5056144;28;19915;-77
2021/04/12 10:45:11;;;;;;;;;;;12.20;65.40;;;;;;5054444;28;20311;-76
2021/04/12 10:47:43;;;;;;;;;;;11.90;65.80;;;;;;5048312;28;20376;-76
2021/04/12 10:50:16;;;;;;;;;;;12.10;65.80;;;;;;5043944;28;19909;-76
2021/04/12 10:53:01;;;;;;;;;;;12.20;66.10;;;;;;5046507;28;20017;-76
2021/04/12 10:55:33;;;;;;;;;;;12.20;65.40;;;;;;5045225;28;20302;-76
2021/04/12 10:58:20;;;;;;;;;;;12.20;65.50;;;;;;5055371;28;20444;-76
2021/04/12 11:00:46;;;;;;;;;;;12.10;66.10;;;;;;5055157;28;19920;-76
2021/04/12 11:03:21;;;;;;;;;;;12.10;65.80;;;;;;5056761;28;19905;-76
2021/04/12 11:05:56;;;;;;;;;;;12.10;66.10;;;;;;5057018;28;19909;-75
2021/04/12 11:08:30;;;;;;;;;;;12.20;65.60;;;;;;5055939;28;20416;-76
2021/04/12 11:11:12;;;;;;;;;;;12.20;65.50;;;;;;5038481;28;19919;-76
2021/04/12 11:13:53;;;;;;;;;;;12.00;65.30;;;;;;5056278;28;19904;-76
2021/04/12 11:16:26;;;;;;;;;;;12.00;66.00;;;;;;5040686;28;19924;-76
2021/04/12 11:18:52;;;;;;;;;;;12.10;66.00;;;;;;5056233;28;19913;-76
2021/04/12 11:21:21;;;;;;;;;;;12.00;65.90;;;;;;5053155;28;19909;-76
2021/04/12 11:24:06;;;;;;;;;;;12.00;65.70;;;;;;5055911;28;19970;-76
2021/04/12 11:26:32;;;;;;;;;;;12.10;66.30;;;;;;5055215;28;19962;-76
2021/04/12 11:29:02;;;;;;;;;;;12.00;65.20;;;;;;5055436;28;20251;-76
2021/04/12 11:31:27;;;;;;;;;;;12.00;66.60;;;;;;5053122;28;19916;-76
2021/04/12 11:34:02;;;;;;;;;;;12.00;66.10;;;;;;5038103;28;19912;-76
2021/04/12 11:36:45;;;;;;;;;;;12.10;66.00;;;;;;5056306;28;19912;-76
2021/04/12 11:39:19;;;;;;;;;;;12.00;66.90;;;;;;5054498;28;19971;-77
2021/04/12 11:41:45;;;;;;;;;;;11.90;66.70;;;;;;5055708;28;19935;-76
2021/04/12 11:44:15;;;;;;;;;;;12.00;67.10;;;;;;5046293;28;20319;-76
2021/04/12 11:46:52;;;;;;;;;;;12.00;66.50;;;;;;5048545;28;19920;-76
2021/04/12 11:49:29;;;;;;;;;;;11.80;66.60;;;;;;5053847;28;20009;-76
2021/04/12 11:51:58;;;;;;;;;;;11.80;67.30;;;;;;5054481;28;19970;-76
2021/04/12 11:54:35;;;;;;;;;;;11.80;66.50;;;;;;5038120;28;20009;-76
2021/04/12 11:57:10;;;;;;;;;;;12.00;67.30;;;;;;5047731;28;19909;-76
2021/04/12 11:59:41;;;;;;;;;;;11.80;66.70;;;;;;5055089;28;19916;-76
2021/04/12 12:02:15;;;;;;;;;;;11.90;66.40;;;;;;5054746;28;19913;-76
2021/04/12 12:04:46;;;;;;;;;;;11.70;66.90;;;;;;5052643;28;19917;-76
2021/04/12 12:07:18;;;;;;;;;;;11.70;66.40;;;;;;5054838;28;19916;-76
2021/04/12 12:09:48;;;;;;;;;;;11.90;66.60;;;;;;5053228;28;20046;-76
2021/04/12 12:12:47;;;;;;;;;;;11.80;66.00;;;;;;5053745;28;19924;-76
2021/04/12 12:15:16;;;;;;;;;;;11.80;65.90;;;;;;5020819;28;19909;-76
2021/04/12 12:17:44;;;;;;;;;;;11.70;67.00;;;;;;5055796;28;19908;-76
2021/04/12 12:20:14;;;;;;;;;;;11.70;66.40;;;;;;5054073;28;19915;-76
2021/04/12 12:22:43;;;;;;;;;;;11.60;66.60;;;;;;5054059;28;19915;-76
2021/04/12 12:25:09;;;;;;;;;;;11.60;67.40;;;;;;5055972;28;20376;-76
2021/04/12 12:27:38;;;;;;;;;;;11.80;66.60;;;;;;5054393;28;19908;-76
2021/04/12 12:30:10;;;;;;;;;;;11.70;67.50;;;;;;5053695;28;20254;-76
2021/04/12 12:33:02;;;;;;;;;;;11.60;66.50;;;;;;5053813;28;20282;-76
2021/04/12 12:35:33;;;;;;;;;;;11.60;66.90;;;;;;5043102;28;19913;-76
2021/04/12 12:38:18;;;;;;;;;;;11.50;66.80;;;;;;5051961;28;19918;-76
2021/04/12 12:40:44;;;;;;;;;;;11.60;66.60;;;;;;5040813;28;19939;-76
2021/04/12 12:43:16;;;;;;;;;;;11.50;66.60;;;;;;5041276;28;20343;-76
2021/04/12 12:45:43;;;;;;;;;;;11.50;66.30;;;;;;5045456;28;20239;-76
2021/04/12 12:48:27;;;;;;;;;;;11.60;67.00;;;;;;5053361;28;20362;-76
2021/04/12 12:50:57;;;;;;;;;;;11.70;67.20;;;;;;5054847;28;19997;-76
2021/04/12 12:53:27;;;;;;;;;;;11.50;66.50;;;;;;5051267;28;19930;-76
2021/04/12 12:55:58;;;;;;;;;;;11.70;68.30;;;;;;5035641;28;19913;-76
2021/04/12 12:58:26;;;;;;;;;;;11.60;66.20;;;;;;5042477;28;19952;-76
2021/04/12 13:00:53;;;;;;;;;;;11.50;66.20;;;;;;5052065;28;19913;-76
2021/04/12 13:03:26;;;;;;;;;;;11.50;66.80;;;;;;5050470;28;19920;-76
2021/04/12 13:05:53;;;;;;;;;;;11.40;66.30;;;;;;5049057;28;19912;-76
2021/04/12 13:08:22;;;;;;;;;;;11.40;66.70;;;;;;5038556;28;19904;-77
2021/04/12 13:10:53;;;;;;;;;;;11.40;66.30;;;;;;5037476;28;19909;-76
2021/04/12 13:13:27;;;;;;;;;;;11.40;66.30;;;;;;5054027;28;19912;-76
2021/04/12 13:15:55;;;;;;;;;;;11.40;66.70;;;;;;5042003;28;19951;-76
2021/04/12 13:18:21;;;;;;;;;;;11.40;66.80;;;;;;5052079;28;19916;-76
2021/04/12 13:20:49;;;;;;;;;;;11.40;66.40;;;;;;5049593;28;19927;-76
2021/04/12 13:23:20;;;;;;;;;;;11.40;67.20;;;;;;5057067;28;19996;-76
2021/04/12 13:25:48;;;;;;;;;;;11.50;67.30;;;;;;5037510;28;19909;-76
2021/04/12 13:28:17;;;;;;;;;;;11.50;67.60;;;;;;5052966;28;20338;-76
2021/04/12 13:31:05;;;;;;;;;;;11.50;67.30;;;;;;5053892;28;19958;-76
2021/04/12 13:33:37;;;;;;;;;;;11.40;67.30;;;;;;5050986;28;19917;-76
2021/04/12 13:36:07;;;;;;;;;;;11.40;67.40;;;;;;5053670;28;19986;-76
2021/04/12 13:38:35;;;;;;;;;;;11.40;67.20;;;;;;5049487;28;20363;-76
2021/04/12 13:41:14;;;;;;;;;;;11.30;67.30;;;;;;5036122;28;19909;-76
2021/04/12 13:43:42;;;;;;;;;;;11.30;67.80;;;;;;5035018;28;19917;-76
2021/04/12 13:46:28;;;;;;;;;;;11.50;67.90;;;;;;5053123;28;20216;-77
2021/04/12 13:49:05;;;;;;;;;;;11.30;66.70;;;;;;5048757;28;19913;-76
2021/04/12 13:51:37;;;;;;;;;;;11.40;67.10;;;;;;5034732;28;20317;-76
2021/04/12 13:54:15;;;;;;;;;;;11.40;67.10;;;;;;5052769;28;19911;-76
2021/04/12 13:56:44;;;;;;;;;;;11.40;67.00;;;;;;5034120;28;20007;-76
2021/04/12 13:59:10;;;;;;;;;;;11.50;68.20;;;;;;5052392;28;19948;-76
2021/04/12 14:01:38;;;;;;;;;;;11.40;68.40;;;;;;5053889;28;19967;-76
2021/04/12 14:04:15;;;;;;;;;;;11.40;68.30;;;;;;5052953;28;20292;-76
2021/04/12 14:06:51;;;;;;;;;;;11.40;67.90;;;;;;5038914;28;20003;-76
2021/04/12 14:09:28;;;;;;;;;;;11.40;67.70;;;;;;5040331;28;19909;-76
2021/04/12 14:12:03;;;;;;;;;;;11.50;68.50;;;;;;5046204;28;20015;-76
2021/04/12 14:14:48;;;;;;;;;;;11.50;68.60;;;;;;5053595;28;19909;-76
2021/04/12 14:17:24;;;;;;;;;;;11.70;69.10;;;;;;5045204;28;19921;-76
2021/04/12 14:19:52;;;;;;;;;;;11.70;68.70;;;;;;5053926;28;19909;-76
2021/04/12 14:22:29;;;;;;;;;;;11.70;68.30;;;;;;5052996;28;19967;-76
2021/04/12 14:25:03;;;;;;;;;;;11.80;69.00;;;;;;5042340;28;20365;-76
2021/04/12 14:27:29;;;;;;;;;;;11.60;68.20;;;;;;5051740;28;19970;-77
2021/04/12 14:30:06;;;;;;;;;;;11.60;68.20;;;;;;5043880;28;19913;-76
2021/04/12 14:32:34;;;;;;;;;;;11.70;68.70;;;;;;5036058;28;19908;-76
2021/04/12 14:35:06;;;;;;;;;;;11.70;68.30;;;;;;5042487;28;19924;-77
2021/04/12 14:37:33;;;;;;;;;;;11.60;68.60;;;;;;5052250;28;19913;-76
2021/04/12 14:40:18;;;;;;;;;;;11.80;69.00;;;;;;5027761;28;19915;-76
2021/04/12 14:42:46;;;;;;;;;;;11.90;68.60;;;;;;5052908;28;19915;-76
2021/04/12 14:45:13;;;;;;;;;;;11.90;68.00;;;;;;5053452;28;19908;-76
2021/04/12 14:47:47;;;;;;;;;;;11.90;68.30;;;;;;5050089;28;19970;-76
2021/04/12 14:50:19;;;;;;;;;;;12.10;68.40;;;;;;5051609;28;19958;-77
2021/04/12 14:52:48;;;;;;;;;;;12.20;69.00;;;;;;5031874;28;19909;-76
2021/04/12 14:55:14;;;;;;;;;;;12.20;69.10;;;;;;5058154;28;19971;-76
2021/04/12 14:57:42;;;;;;;;;;;12.20;68.50;;;;;;5057017;28;19905;-77
2021/04/12 15:00:08;;;;;;;;;;;12.20;69.20;;;;;;5057331;28;19915;-78
2021/04/12 15:02:36;;;;;;;;;;;12.20;68.50;;;;;;5055966;28;19995;-78
2021/04/12 15:05:06;;;;;;;;;;;12.20;68.60;;;;;;5057166;28;19909;-77
2021/04/12 15:07:47;;;;;;;;;;;12.30;68.60;;;;;;5057068;28;19971;-77
2021/04/12 15:10:24;;;;;;;;;;;12.40;69.20;;;;;;5050916;28;19916;-76